sensor_id;sensor_type;location;lat;lon;timestamp;P1;durP1;ratioP1;P2;durP2;ratioP2
66886;SDS011;67239;51.680;5.976;2024-02-21T00:02:26;21.90;;;8.05;;
66886;SDS011;67239;51.680;5.976;2024-02-21T00:04:53;23.27;;;9.32;;
66886;SDS011;67239;51.680;5.976;2024-02-21T00:07:21;26.13;;;9.45;;
66886;SDS011;67239;51.680;5.976;2024-02-21T00:09:48;19.67;;;8.88;;
66886;SDS011;67239;51.680;5.976;2024-02-21T00:12:15;21.30;;;8.50;;
66886;SDS011;67239;51.680;5.976;2024-02-21T00:14:43;24.30;;;9.05;;
66886;SDS011;67239;51.680;5.976;2024-02-21T00:17:10;22.73;;;9.10;;
66886;SDS011;67239;51.680;5.976;2024-02-21T00:19:37;20.92;;;8.15;;
66886;SDS011;67239;51.680;5.976;2024-02-21T00:22:04;24.63;;;9.98;;
66886;SDS011;67239;51.680;5.976;2024-02-21T00:24:31;22.25;;;9.10;;
66886;SDS011;67239;51.680;5.976;2024-02-21T00:26:58;19.48;;;8.23;;
66886;SDS011;67239;51.680;5.976;2024-02-21T00:29:26;18.42;;;8.48;;
66886;SDS011;67239;51.680;5.976;2024-02-21T00:31:54;22.67;;;8.15;;
66886;SDS011;67239;51.680;5.976;2024-02-21T00:34:21;23.55;;;9.00;;
66886;SDS011;67239;51.680;5.976;2024-02-21T00:36:48;19.80;;;7.97;;
66886;SDS011;67239;51.680;5.976;2024-02-21T00:39:16;20.58;;;8.07;;
66886;SDS011;67239;51.680;5.976;2024-02-21T00:41:43;25.33;;;8.68;;
66886;SDS011;67239;51.680;5.976;2024-02-21T00:44:11;27.48;;;8.77;;
66886;SDS011;67239;51.680;5.976;2024-02-21T00:46:38;20.70;;;8.82;;
66886;SDS011;67239;51.680;5.976;2024-02-21T01:18:06;14.00;;;7.43;;
66886;SDS011;67239;51.680;5.976;2024-02-21T01:20:33;16.33;;;7.97;;
66886;SDS011;67239;51.680;5.976;2024-02-21T01:23:01;22.95;;;8.43;;
66886;SDS011;67239;51.680;5.976;2024-02-21T01:25:28;20.75;;;8.00;;
66886;SDS011;67239;51.680;5.976;2024-02-21T01:27:55;18.40;;;8.00;;
66886;SDS011;67239;51.680;5.976;2024-02-21T01:30:22;16.77;;;8.55;;
66886;SDS011;67239;51.680;5.976;2024-02-21T01:32:50;18.85;;;8.15;;
66886;SDS011;67239;51.680;5.976;2024-02-21T01:35:17;24.13;;;7.68;;
66886;SDS011;67239;51.680;5.976;2024-02-21T01:37:45;19.67;;;7.80;;
66886;SDS011;67239;51.680;5.976;2024-02-21T01:40:12;13.40;;;7.65;;
66886;SDS011;67239;51.680;5.976;2024-02-21T01:42:39;20.60;;;7.70;;
66886;SDS011;67239;51.680;5.976;2024-02-21T01:45:10;16.25;;;8.50;;
66886;SDS011;67239;51.680;5.976;2024-02-21T01:47:37;20.27;;;8.10;;
66886;SDS011;67239;51.680;5.976;2024-02-21T01:50:05;21.60;;;6.95;;
66886;SDS011;67239;51.680;5.976;2024-02-21T01:52:33;14.73;;;6.90;;
66886;SDS011;67239;51.680;5.976;2024-02-21T01:55:02;22.77;;;7.60;;
66886;SDS011;67239;51.680;5.976;2024-02-21T01:57:31;13.98;;;7.60;;
66886;SDS011;67239;51.680;5.976;2024-02-21T01:59:59;19.05;;;7.68;;
66886;SDS011;67239;51.680;5.976;2024-02-21T02:02:27;15.13;;;7.47;;
66886;SDS011;67239;51.680;5.976;2024-02-21T02:04:54;18.67;;;7.00;;
66886;SDS011;67239;51.680;5.976;2024-02-21T02:07:21;22.25;;;8.02;;
66886;SDS011;67239;51.680;5.976;2024-02-21T02:09:48;18.23;;;6.97;;
66886;SDS011;67239;51.680;5.976;2024-02-21T02:12:16;17.67;;;7.10;;
66886;SDS011;67239;51.680;5.976;2024-02-21T02:14:43;15.13;;;7.40;;
66886;SDS011;67239;51.680;5.976;2024-02-21T02:17:10;16.23;;;7.40;;
66886;SDS011;67239;51.680;5.976;2024-02-21T02:19:37;19.27;;;7.95;;
66886;SDS011;67239;51.680;5.976;2024-02-21T02:22:09;17.83;;;7.03;;
66886;SDS011;67239;51.680;5.976;2024-02-21T02:24:46;16.55;;;6.93;;
66886;SDS011;67239;51.680;5.976;2024-02-21T02:27:13;15.98;;;6.85;;
66886;SDS011;67239;51.680;5.976;2024-02-21T02:29:40;14.77;;;6.63;;
66886;SDS011;67239;51.680;5.976;2024-02-21T02:32:08;13.48;;;6.43;;
66886;SDS011;67239;51.680;5.976;2024-02-21T02:34:35;14.73;;;6.43;;
66886;SDS011;67239;51.680;5.976;2024-02-21T02:37:03;18.77;;;6.03;;
66886;SDS011;67239;51.680;5.976;2024-02-21T02:39:30;13.13;;;5.85;;
66886;SDS011;67239;51.680;5.976;2024-02-21T02:41:57;11.05;;;5.45;;
66886;SDS011;67239;51.680;5.976;2024-02-21T02:44:24;12.50;;;6.15;;
66886;SDS011;67239;51.680;5.976;2024-02-21T02:46:51;14.93;;;5.85;;
66886;SDS011;67239;51.680;5.976;2024-02-21T02:49:18;14.38;;;5.55;;
66886;SDS011;67239;51.680;5.976;2024-02-21T02:51:45;13.35;;;5.80;;
66886;SDS011;67239;51.680;5.976;2024-02-21T02:54:12;12.80;;;5.97;;
66886;SDS011;67239;51.680;5.976;2024-02-21T02:56:39;17.75;;;5.80;;
66886;SDS011;67239;51.680;5.976;2024-02-21T02:59:07;16.50;;;6.00;;
66886;SDS011;67239;51.680;5.976;2024-02-21T03:01:34;9.30;;;5.00;;
66886;SDS011;67239;51.680;5.976;2024-02-21T03:04:02;15.27;;;5.65;;
66886;SDS011;67239;51.680;5.976;2024-02-21T03:06:29;11.65;;;5.20;;
66886;SDS011;67239;51.680;5.976;2024-02-21T03:08:57;12.57;;;5.53;;
66886;SDS011;67239;51.680;5.976;2024-02-21T03:11:24;17.30;;;5.07;;
66886;SDS011;67239;51.680;5.976;2024-02-21T03:13:56;13.00;;;5.47;;
66886;SDS011;67239;51.680;5.976;2024-02-21T03:16:25;10.32;;;5.20;;
66886;SDS011;67239;51.680;5.976;2024-02-21T03:18:52;14.80;;;5.63;;
66886;SDS011;67239;51.680;5.976;2024-02-21T03:21:19;13.48;;;5.57;;
66886;SDS011;67239;51.680;5.976;2024-02-21T03:23:46;15.85;;;5.55;;
66886;SDS011;67239;51.680;5.976;2024-02-21T03:26:13;14.05;;;5.85;;
66886;SDS011;67239;51.680;5.976;2024-02-21T03:28:44;12.77;;;4.85;;
66886;SDS011;67239;51.680;5.976;2024-02-21T03:31:13;13.27;;;5.10;;
66886;SDS011;67239;51.680;5.976;2024-02-21T03:33:41;12.38;;;5.15;;
66886;SDS011;67239;51.680;5.976;2024-02-21T03:36:13;11.68;;;5.15;;
66886;SDS011;67239;51.680;5.976;2024-02-21T03:38:42;12.88;;;5.25;;
66886;SDS011;67239;51.680;5.976;2024-02-21T03:41:09;12.85;;;5.20;;
66886;SDS011;67239;51.680;5.976;2024-02-21T03:43:39;8.10;;;4.80;;
66886;SDS011;67239;51.680;5.976;2024-02-21T03:46:06;12.23;;;5.05;;
66886;SDS011;67239;51.680;5.976;2024-02-21T03:48:33;14.38;;;4.82;;
66886;SDS011;67239;51.680;5.976;2024-02-21T03:51:01;9.10;;;4.60;;
66886;SDS011;67239;51.680;5.976;2024-02-21T03:53:28;10.70;;;5.20;;
66886;SDS011;67239;51.680;5.976;2024-02-21T03:55:55;12.00;;;4.90;;
66886;SDS011;67239;51.680;5.976;2024-02-21T03:58:23;12.63;;;5.22;;
66886;SDS011;67239;51.680;5.976;2024-02-21T04:00:50;11.95;;;4.72;;
66886;SDS011;67239;51.680;5.976;2024-02-21T04:03:18;12.13;;;4.38;;
66886;SDS011;67239;51.680;5.976;2024-02-21T04:05:46;10.05;;;4.63;;
66886;SDS011;67239;51.680;5.976;2024-02-21T04:08:13;11.18;;;4.47;;
66886;SDS011;67239;51.680;5.976;2024-02-21T04:10:41;11.88;;;4.50;;
66886;SDS011;67239;51.680;5.976;2024-02-21T04:13:08;12.32;;;4.65;;
66886;SDS011;67239;51.680;5.976;2024-02-21T04:15:36;9.52;;;4.50;;
66886;SDS011;67239;51.680;5.976;2024-02-21T04:18:03;14.25;;;4.72;;
66886;SDS011;67239;51.680;5.976;2024-02-21T04:20:30;7.78;;;4.47;;
66886;SDS011;67239;51.680;5.976;2024-02-21T04:22:59;10.45;;;4.32;;
66886;SDS011;67239;51.680;5.976;2024-02-21T04:25:26;10.18;;;4.43;;
66886;SDS011;67239;51.680;5.976;2024-02-21T04:27:53;9.52;;;4.82;;
66886;SDS011;67239;51.680;5.976;2024-02-21T04:30:20;10.73;;;4.43;;
66886;SDS011;67239;51.680;5.976;2024-02-21T04:32:47;12.65;;;4.55;;
66886;SDS011;67239;51.680;5.976;2024-02-21T04:35:14;10.23;;;4.13;;
66886;SDS011;67239;51.680;5.976;2024-02-21T04:37:42;9.68;;;4.25;;
66886;SDS011;67239;51.680;5.976;2024-02-21T04:40:09;11.63;;;4.85;;
66886;SDS011;67239;51.680;5.976;2024-02-21T04:42:37;10.93;;;4.60;;
66886;SDS011;67239;51.680;5.976;2024-02-21T04:45:04;9.57;;;4.72;;
66886;SDS011;67239;51.680;5.976;2024-02-21T04:47:31;10.70;;;4.47;;
66886;SDS011;67239;51.680;5.976;2024-02-21T04:49:58;12.07;;;5.28;;
66886;SDS011;67239;51.680;5.976;2024-02-21T04:52:26;9.90;;;5.13;;
66886;SDS011;67239;51.680;5.976;2024-02-21T04:54:53;10.75;;;4.63;;
66886;SDS011;67239;51.680;5.976;2024-02-21T04:57:20;9.63;;;4.80;;
66886;SDS011;67239;51.680;5.976;2024-02-21T04:59:47;16.08;;;5.30;;
66886;SDS011;67239;51.680;5.976;2024-02-21T05:02:14;15.15;;;6.35;;
66886;SDS011;67239;51.680;5.976;2024-02-21T05:04:42;12.43;;;5.57;;
66886;SDS011;67239;51.680;5.976;2024-02-21T05:07:11;13.98;;;5.85;;
66886;SDS011;67239;51.680;5.976;2024-02-21T05:09:38;15.48;;;7.60;;
66886;SDS011;67239;51.680;5.976;2024-02-21T05:12:06;15.85;;;6.05;;
66886;SDS011;67239;51.680;5.976;2024-02-21T05:14:34;14.10;;;6.35;;
66886;SDS011;67239;51.680;5.976;2024-02-21T05:17:01;17.88;;;6.97;;
66886;SDS011;67239;51.680;5.976;2024-02-21T05:19:28;16.52;;;7.28;;
66886;SDS011;67239;51.680;5.976;2024-02-21T05:21:56;14.77;;;6.82;;
66886;SDS011;67239;51.680;5.976;2024-02-21T05:24:23;18.67;;;6.97;;
66886;SDS011;67239;51.680;5.976;2024-02-21T05:26:50;18.98;;;6.70;;
66886;SDS011;67239;51.680;5.976;2024-02-21T05:29:18;14.70;;;7.35;;
66886;SDS011;67239;51.680;5.976;2024-02-21T05:34:18;18.60;;;7.65;;
66886;SDS011;67239;51.680;5.976;2024-02-21T05:36:47;17.15;;;7.80;;
66886;SDS011;67239;51.680;5.976;2024-02-21T05:39:16;24.15;;;7.85;;
66886;SDS011;67239;51.680;5.976;2024-02-21T05:41:44;21.05;;;8.00;;
66886;SDS011;67239;51.680;5.976;2024-02-21T05:44:12;25.85;;;7.90;;
66886;SDS011;67239;51.680;5.976;2024-02-21T05:46:42;20.30;;;8.32;;
66886;SDS011;67239;51.680;5.976;2024-02-21T05:49:30;19.13;;;8.43;;
66886;SDS011;67239;51.680;5.976;2024-02-21T05:52:00;19.13;;;8.10;;
66886;SDS011;67239;51.680;5.976;2024-02-21T05:54:27;21.23;;;7.47;;
66886;SDS011;67239;51.680;5.976;2024-02-21T05:56:54;19.25;;;8.10;;
66886;SDS011;67239;51.680;5.976;2024-02-21T05:59:21;19.45;;;8.57;;
66886;SDS011;67239;51.680;5.976;2024-02-21T06:01:55;21.25;;;8.35;;
66886;SDS011;67239;51.680;5.976;2024-02-21T06:04:25;29.83;;;8.55;;
66886;SDS011;67239;51.680;5.976;2024-02-21T06:06:53;29.52;;;8.77;;
66886;SDS011;67239;51.680;5.976;2024-02-21T06:09:20;35.35;;;9.30;;
66886;SDS011;67239;51.680;5.976;2024-02-21T06:11:48;22.60;;;8.25;;
66886;SDS011;67239;51.680;5.976;2024-02-21T06:14:15;28.38;;;8.40;;
66886;SDS011;67239;51.680;5.976;2024-02-21T06:16:43;20.48;;;7.80;;
66886;SDS011;67239;51.680;5.976;2024-02-21T06:19:11;18.15;;;7.32;;
66886;SDS011;67239;51.680;5.976;2024-02-21T06:21:38;23.67;;;8.57;;
66886;SDS011;67239;51.680;5.976;2024-02-21T06:24:05;26.95;;;8.40;;
66886;SDS011;67239;51.680;5.976;2024-02-21T06:26:33;16.35;;;7.55;;
66886;SDS011;67239;51.680;5.976;2024-02-21T06:29:00;29.63;;;7.78;;
66886;SDS011;67239;51.680;5.976;2024-02-21T06:31:28;24.50;;;8.10;;
66886;SDS011;67239;51.680;5.976;2024-02-21T06:33:56;17.90;;;7.25;;
66886;SDS011;67239;51.680;5.976;2024-02-21T06:36:23;20.77;;;7.40;;
66886;SDS011;67239;51.680;5.976;2024-02-21T06:38:50;19.63;;;7.35;;
66886;SDS011;67239;51.680;5.976;2024-02-21T06:41:17;24.15;;;7.15;;
66886;SDS011;67239;51.680;5.976;2024-02-21T06:43:46;15.80;;;7.20;;
66886;SDS011;67239;51.680;5.976;2024-02-21T06:46:28;22.58;;;7.50;;
66886;SDS011;67239;51.680;5.976;2024-02-21T06:48:56;15.15;;;7.32;;
66886;SDS011;67239;51.680;5.976;2024-02-21T06:51:27;23.95;;;8.00;;
66886;SDS011;67239;51.680;5.976;2024-02-21T06:53:54;31.23;;;8.02;;
66886;SDS011;67239;51.680;5.976;2024-02-21T06:56:23;15.73;;;7.30;;
66886;SDS011;67239;51.680;5.976;2024-02-21T06:58:56;15.25;;;7.47;;
66886;SDS011;67239;51.680;5.976;2024-02-21T07:01:23;20.63;;;7.75;;
66886;SDS011;67239;51.680;5.976;2024-02-21T07:03:51;29.23;;;8.15;;
66886;SDS011;67239;51.680;5.976;2024-02-21T07:06:18;16.00;;;6.80;;
66886;SDS011;67239;51.680;5.976;2024-02-21T07:08:45;22.98;;;8.02;;
66886;SDS011;67239;51.680;5.976;2024-02-21T07:11:13;16.42;;;7.68;;
66886;SDS011;67239;51.680;5.976;2024-02-21T07:13:40;25.33;;;8.30;;
66886;SDS011;67239;51.680;5.976;2024-02-21T07:16:08;44.83;;;8.60;;
66886;SDS011;67239;51.680;5.976;2024-02-21T07:18:35;28.33;;;8.85;;
66886;SDS011;67239;51.680;5.976;2024-02-21T07:21:02;31.58;;;9.25;;
66886;SDS011;67239;51.680;5.976;2024-02-21T07:23:29;23.35;;;7.90;;
66886;SDS011;67239;51.680;5.976;2024-02-21T07:25:56;29.85;;;8.00;;
66886;SDS011;67239;51.680;5.976;2024-02-21T07:28:24;21.02;;;8.02;;
66886;SDS011;67239;51.680;5.976;2024-02-21T07:30:51;21.23;;;8.75;;
66886;SDS011;67239;51.680;5.976;2024-02-21T07:33:18;25.08;;;8.38;;
66886;SDS011;67239;51.680;5.976;2024-02-21T07:35:45;28.73;;;9.68;;
66886;SDS011;67239;51.680;5.976;2024-02-21T07:38:12;25.30;;;10.27;;
66886;SDS011;67239;51.680;5.976;2024-02-21T07:40:41;23.17;;;8.40;;
66886;SDS011;67239;51.680;5.976;2024-02-21T07:43:08;22.30;;;8.88;;
66886;SDS011;67239;51.680;5.976;2024-02-21T07:45:35;23.73;;;9.10;;
66886;SDS011;67239;51.680;5.976;2024-02-21T07:48:02;26.60;;;9.10;;
66886;SDS011;67239;51.680;5.976;2024-02-21T07:50:30;17.70;;;8.60;;
66886;SDS011;67239;51.680;5.976;2024-02-21T07:52:57;18.67;;;8.48;;
66886;SDS011;67239;51.680;5.976;2024-02-21T07:55:24;18.63;;;8.50;;
66886;SDS011;67239;51.680;5.976;2024-02-21T07:57:51;18.65;;;8.18;;
66886;SDS011;67239;51.680;5.976;2024-02-21T08:00:19;16.75;;;7.55;;
66886;SDS011;67239;51.680;5.976;2024-02-21T08:02:48;16.98;;;8.70;;
66886;SDS011;67239;51.680;5.976;2024-02-21T08:05:20;19.67;;;7.82;;
66886;SDS011;67239;51.680;5.976;2024-02-21T08:07:53;15.73;;;7.35;;
66886;SDS011;67239;51.680;5.976;2024-02-21T08:10:24;15.18;;;7.40;;
66886;SDS011;67239;51.680;5.976;2024-02-21T08:12:51;18.48;;;7.97;;
66886;SDS011;67239;51.680;5.976;2024-02-21T08:15:18;21.75;;;7.90;;
66886;SDS011;67239;51.680;5.976;2024-02-21T08:17:45;19.67;;;7.80;;
66886;SDS011;67239;51.680;5.976;2024-02-21T08:20:12;24.73;;;9.07;;
66886;SDS011;67239;51.680;5.976;2024-02-21T08:22:39;23.20;;;8.10;;
66886;SDS011;67239;51.680;5.976;2024-02-21T08:25:07;22.17;;;8.20;;
66886;SDS011;67239;51.680;5.976;2024-02-21T08:27:34;20.13;;;6.85;;
66886;SDS011;67239;51.680;5.976;2024-02-21T08:30:01;18.73;;;7.80;;
66886;SDS011;67239;51.680;5.976;2024-02-21T08:32:28;16.70;;;7.35;;
66886;SDS011;67239;51.680;5.976;2024-02-21T08:34:55;21.92;;;7.78;;
66886;SDS011;67239;51.680;5.976;2024-02-21T08:37:23;33.35;;;8.43;;
66886;SDS011;67239;51.680;5.976;2024-02-21T08:39:50;22.73;;;8.15;;
66886;SDS011;67239;51.680;5.976;2024-02-21T08:42:17;13.70;;;6.70;;
66886;SDS011;67239;51.680;5.976;2024-02-21T08:44:44;14.60;;;6.45;;
66886;SDS011;67239;51.680;5.976;2024-02-21T08:47:11;17.02;;;6.50;;
66886;SDS011;67239;51.680;5.976;2024-02-21T08:49:38;20.55;;;7.72;;
66886;SDS011;67239;51.680;5.976;2024-02-21T08:52:06;17.98;;;6.97;;
66886;SDS011;67239;51.680;5.976;2024-02-21T08:54:33;12.48;;;6.10;;
66886;SDS011;67239;51.680;5.976;2024-02-21T08:57:01;25.73;;;8.68;;
66886;SDS011;67239;51.680;5.976;2024-02-21T08:59:28;18.42;;;7.00;;
66886;SDS011;67239;51.680;5.976;2024-02-21T09:01:55;12.43;;;6.38;;
66886;SDS011;67239;51.680;5.976;2024-02-21T09:04:22;10.80;;;6.75;;
66886;SDS011;67239;51.680;5.976;2024-02-21T09:06:49;16.20;;;7.20;;
66886;SDS011;67239;51.680;5.976;2024-02-21T09:09:18;14.88;;;6.90;;
66886;SDS011;67239;51.680;5.976;2024-02-21T09:11:46;21.33;;;7.43;;
66886;SDS011;67239;51.680;5.976;2024-02-21T09:14:13;12.50;;;6.53;;
66886;SDS011;67239;51.680;5.976;2024-02-21T09:16:41;23.00;;;7.95;;
66886;SDS011;67239;51.680;5.976;2024-02-21T09:19:08;21.60;;;7.45;;
66886;SDS011;67239;51.680;5.976;2024-02-21T09:21:37;22.50;;;7.25;;
66886;SDS011;67239;51.680;5.976;2024-02-21T09:24:05;21.17;;;7.32;;
66886;SDS011;67239;51.680;5.976;2024-02-21T09:26:33;33.00;;;7.63;;
66886;SDS011;67239;51.680;5.976;2024-02-21T09:29:00;25.17;;;7.38;;
66886;SDS011;67239;51.680;5.976;2024-02-21T09:31:27;28.58;;;7.15;;
66886;SDS011;67239;51.680;5.976;2024-02-21T09:33:54;18.42;;;5.93;;
66886;SDS011;67239;51.680;5.976;2024-02-21T09:36:22;20.40;;;6.50;;
66886;SDS011;67239;51.680;5.976;2024-02-21T09:38:49;34.63;;;7.45;;
66886;SDS011;67239;51.680;5.976;2024-02-21T09:41:26;16.40;;;6.75;;
66886;SDS011;67239;51.680;5.976;2024-02-21T09:43:56;22.92;;;5.95;;
66886;SDS011;67239;51.680;5.976;2024-02-21T09:46:33;21.35;;;6.20;;
66886;SDS011;67239;51.680;5.976;2024-02-21T09:49:29;18.67;;;6.05;;
66886;SDS011;67239;51.680;5.976;2024-02-21T09:52:05;9.07;;;4.75;;
66886;SDS011;67239;51.680;5.976;2024-02-21T09:54:33;8.40;;;4.57;;
66886;SDS011;67239;51.680;5.976;2024-02-21T09:57:04;13.98;;;5.45;;
66886;SDS011;67239;51.680;5.976;2024-02-21T09:59:32;11.68;;;5.20;;
66886;SDS011;67239;51.680;5.976;2024-02-21T10:02:00;11.30;;;5.70;;
66886;SDS011;67239;51.680;5.976;2024-02-21T10:04:29;9.80;;;5.43;;
66886;SDS011;67239;51.680;5.976;2024-02-21T10:06:57;18.17;;;5.82;;
66886;SDS011;67239;51.680;5.976;2024-02-21T10:09:24;18.08;;;6.72;;
66886;SDS011;67239;51.680;5.976;2024-02-21T10:12:07;9.43;;;6.25;;
66886;SDS011;67239;51.680;5.976;2024-02-21T10:14:40;46.70;;;8.30;;
66886;SDS011;67239;51.680;5.976;2024-02-21T10:17:08;29.27;;;8.60;;
66886;SDS011;67239;51.680;5.976;2024-02-21T10:19:45;23.60;;;7.13;;
66886;SDS011;67239;51.680;5.976;2024-02-21T10:22:14;17.05;;;7.20;;
66886;SDS011;67239;51.680;5.976;2024-02-21T10:24:42;14.85;;;7.45;;
66886;SDS011;67239;51.680;5.976;2024-02-21T10:27:09;15.98;;;6.28;;
66886;SDS011;67239;51.680;5.976;2024-02-21T10:29:39;15.23;;;7.25;;
66886;SDS011;67239;51.680;5.976;2024-02-21T10:32:11;13.48;;;6.45;;
66886;SDS011;67239;51.680;5.976;2024-02-21T10:34:41;20.25;;;6.70;;
66886;SDS011;67239;51.680;5.976;2024-02-21T10:37:11;19.33;;;6.55;;
66886;SDS011;67239;51.680;5.976;2024-02-21T10:39:39;25.30;;;6.93;;
66886;SDS011;67239;51.680;5.976;2024-02-21T10:42:10;21.05;;;7.15;;
66886;SDS011;67239;51.680;5.976;2024-02-21T10:44:39;15.02;;;5.80;;
66886;SDS011;67239;51.680;5.976;2024-02-21T10:47:09;14.15;;;6.18;;
66886;SDS011;67239;51.680;5.976;2024-02-21T10:49:40;11.35;;;5.85;;
66886;SDS011;67239;51.680;5.976;2024-02-21T10:55:20;18.90;;;5.88;;
66886;SDS011;67239;51.680;5.976;2024-02-21T10:58:00;12.88;;;5.22;;
66886;SDS011;67239;51.680;5.976;2024-02-21T11:00:29;10.15;;;5.35;;
66886;SDS011;67239;51.680;5.976;2024-02-21T11:02:58;17.83;;;5.82;;
66886;SDS011;67239;51.680;5.976;2024-02-21T11:05:27;15.05;;;6.10;;
66886;SDS011;67239;51.680;5.976;2024-02-21T11:07:55;11.15;;;5.88;;
66886;SDS011;67239;51.680;5.976;2024-02-21T11:10:24;12.05;;;5.70;;
66886;SDS011;67239;51.680;5.976;2024-02-21T11:13:14;11.65;;;5.32;;
66886;SDS011;67239;51.680;5.976;2024-02-21T11:15:41;12.65;;;5.97;;
66886;SDS011;67239;51.680;5.976;2024-02-21T11:18:08;13.13;;;5.38;;
66886;SDS011;67239;51.680;5.976;2024-02-21T11:20:35;13.93;;;5.63;;
66886;SDS011;67239;51.680;5.976;2024-02-21T11:23:04;17.13;;;7.13;;
66886;SDS011;67239;51.680;5.976;2024-02-21T11:25:32;31.02;;;10.02;;
66886;SDS011;67239;51.680;5.976;2024-02-21T11:28:02;21.95;;;7.03;;
66886;SDS011;67239;51.680;5.976;2024-02-21T11:30:30;10.45;;;5.38;;
66886;SDS011;67239;51.680;5.976;2024-02-21T11:33:02;18.30;;;5.82;;
66886;SDS011;67239;51.680;5.976;2024-02-21T11:35:30;15.63;;;5.80;;
66886;SDS011;67239;51.680;5.976;2024-02-21T11:38:09;18.80;;;6.03;;
66886;SDS011;67239;51.680;5.976;2024-02-21T11:40:39;8.10;;;5.28;;
66886;SDS011;67239;51.680;5.976;2024-02-21T11:43:07;15.13;;;5.68;;
66886;SDS011;67239;51.680;5.976;2024-02-21T11:45:34;13.93;;;5.40;;
66886;SDS011;67239;51.680;5.976;2024-02-21T11:48:01;14.07;;;5.30;;
66886;SDS011;67239;51.680;5.976;2024-02-21T11:50:30;14.25;;;5.25;;
66886;SDS011;67239;51.680;5.976;2024-02-21T11:52:58;31.30;;;6.53;;
66886;SDS011;67239;51.680;5.976;2024-02-21T11:55:25;12.85;;;5.78;;
66886;SDS011;67239;51.680;5.976;2024-02-21T11:57:52;23.20;;;6.32;;
66886;SDS011;67239;51.680;5.976;2024-02-21T12:00:19;42.42;;;6.47;;
66886;SDS011;67239;51.680;5.976;2024-02-21T12:02:47;16.60;;;5.35;;
66886;SDS011;67239;51.680;5.976;2024-02-21T12:05:18;25.13;;;6.40;;
66886;SDS011;67239;51.680;5.976;2024-02-21T12:07:46;31.70;;;6.82;;
66886;SDS011;67239;51.680;5.976;2024-02-21T12:10:14;34.38;;;7.43;;
66886;SDS011;67239;51.680;5.976;2024-02-21T12:12:41;26.67;;;6.13;;
66886;SDS011;67239;51.680;5.976;2024-02-21T12:15:08;69.53;;;9.55;;
66886;SDS011;67239;51.680;5.976;2024-02-21T12:17:36;26.08;;;5.88;;
66886;SDS011;67239;51.680;5.976;2024-02-21T12:20:06;16.05;;;5.05;;
66886;SDS011;67239;51.680;5.976;2024-02-21T12:22:38;16.55;;;5.93;;
66886;SDS011;67239;51.680;5.976;2024-02-21T12:25:15;25.55;;;6.38;;
66886;SDS011;67239;51.680;5.976;2024-02-21T12:27:47;18.45;;;5.47;;
66886;SDS011;67239;51.680;5.976;2024-02-21T12:30:16;18.45;;;5.75;;
66886;SDS011;67239;51.680;5.976;2024-02-21T12:32:43;16.02;;;5.18;;
66886;SDS011;67239;51.680;5.976;2024-02-21T12:35:10;25.77;;;6.13;;
66886;SDS011;67239;51.680;5.976;2024-02-21T12:37:38;46.53;;;8.07;;
66886;SDS011;67239;51.680;5.976;2024-02-21T12:40:06;8.68;;;4.50;;
66886;SDS011;67239;51.680;5.976;2024-02-21T12:42:35;21.95;;;5.32;;
66886;SDS011;67239;51.680;5.976;2024-02-21T12:45:03;20.05;;;5.90;;
66886;SDS011;67239;51.680;5.976;2024-02-21T12:47:30;24.20;;;5.82;;
66886;SDS011;67239;51.680;5.976;2024-02-21T12:49:58;14.30;;;4.95;;
66886;SDS011;67239;51.680;5.976;2024-02-21T12:52:25;29.92;;;5.68;;
66886;SDS011;67239;51.680;5.976;2024-02-21T12:54:53;14.68;;;4.97;;
66886;SDS011;67239;51.680;5.976;2024-02-21T12:57:23;18.92;;;5.53;;
66886;SDS011;67239;51.680;5.976;2024-02-21T12:59:53;18.75;;;5.55;;
66886;SDS011;67239;51.680;5.976;2024-02-21T13:02:21;22.70;;;6.18;;
66886;SDS011;67239;51.680;5.976;2024-02-21T13:04:49;18.33;;;5.30;;
66886;SDS011;67239;51.680;5.976;2024-02-21T13:07:16;25.42;;;5.80;;
66886;SDS011;67239;51.680;5.976;2024-02-21T13:09:43;27.10;;;6.63;;
66886;SDS011;67239;51.680;5.976;2024-02-21T13:12:10;10.15;;;4.70;;
66886;SDS011;67239;51.680;5.976;2024-02-21T13:14:39;20.17;;;6.00;;
66886;SDS011;67239;51.680;5.976;2024-02-21T13:17:06;19.60;;;5.68;;
66886;SDS011;67239;51.680;5.976;2024-02-21T13:19:34;16.17;;;5.10;;
66886;SDS011;67239;51.680;5.976;2024-02-21T13:22:01;17.30;;;4.85;;
66886;SDS011;67239;51.680;5.976;2024-02-21T13:24:30;19.58;;;5.22;;
66886;SDS011;67239;51.680;5.976;2024-02-21T13:26:58;10.27;;;4.93;;
66886;SDS011;67239;51.680;5.976;2024-02-21T13:29:25;15.00;;;5.05;;
66886;SDS011;67239;51.680;5.976;2024-02-21T13:31:52;30.90;;;6.72;;
66886;SDS011;67239;51.680;5.976;2024-02-21T13:34:19;90.57;;;37.63;;
66886;SDS011;67239;51.680;5.976;2024-02-21T13:36:47;67.05;;;33.58;;
66886;SDS011;67239;51.680;5.976;2024-02-21T13:39:14;100.88;;;50.78;;
66886;SDS011;67239;51.680;5.976;2024-02-21T13:41:42;90.40;;;44.45;;
66886;SDS011;67239;51.680;5.976;2024-02-21T13:44:10;44.67;;;24.30;;
66886;SDS011;67239;51.680;5.976;2024-02-21T13:46:39;16.83;;;13.75;;
66886;SDS011;67239;51.680;5.976;2024-02-21T13:49:07;18.20;;;8.40;;
66886;SDS011;67239;51.680;5.976;2024-02-21T13:51:34;18.50;;;6.68;;
66886;SDS011;67239;51.680;5.976;2024-02-21T13:54:05;9.50;;;5.47;;
66886;SDS011;67239;51.680;5.976;2024-02-21T13:56:35;9.20;;;4.95;;
66886;SDS011;67239;51.680;5.976;2024-02-21T13:59:03;15.73;;;5.63;;
66886;SDS011;67239;51.680;5.976;2024-02-21T14:01:31;20.40;;;12.20;;
66886;SDS011;67239;51.680;5.976;2024-02-21T14:03:59;71.03;;;42.17;;
66886;SDS011;67239;51.680;5.976;2024-02-21T14:06:27;21.13;;;8.48;;
66886;SDS011;67239;51.680;5.976;2024-02-21T14:08:54;26.55;;;10.13;;
66886;SDS011;67239;51.680;5.976;2024-02-21T14:11:21;26.40;;;9.55;;
66886;SDS011;67239;51.680;5.976;2024-02-21T14:13:50;39.35;;;7.90;;
66886;SDS011;67239;51.680;5.976;2024-02-21T14:16:17;23.85;;;7.35;;
66886;SDS011;67239;51.680;5.976;2024-02-21T14:18:44;58.28;;;14.77;;
66886;SDS011;67239;51.680;5.976;2024-02-21T14:21:11;18.27;;;5.93;;
66886;SDS011;67239;51.680;5.976;2024-02-21T14:23:38;24.80;;;7.55;;
66886;SDS011;67239;51.680;5.976;2024-02-21T14:26:06;14.55;;;7.38;;
66886;SDS011;67239;51.680;5.976;2024-02-21T14:28:33;28.70;;;6.57;;
66886;SDS011;67239;51.680;5.976;2024-02-21T14:31:00;26.83;;;9.48;;
66886;SDS011;67239;51.680;5.976;2024-02-21T14:33:28;28.25;;;5.88;;
66886;SDS011;67239;51.680;5.976;2024-02-21T14:35:56;44.38;;;9.25;;
66886;SDS011;67239;51.680;5.976;2024-02-21T14:38:23;25.90;;;7.70;;
66886;SDS011;67239;51.680;5.976;2024-02-21T14:40:50;13.40;;;5.00;;
66886;SDS011;67239;51.680;5.976;2024-02-21T14:43:17;20.38;;;8.27;;
66886;SDS011;67239;51.680;5.976;2024-02-21T14:45:44;47.10;;;8.40;;
66886;SDS011;67239;51.680;5.976;2024-02-21T14:48:14;12.85;;;5.00;;
66886;SDS011;67239;51.680;5.976;2024-02-21T14:50:42;14.98;;;4.55;;
66886;SDS011;67239;51.680;5.976;2024-02-21T14:53:09;12.13;;;3.78;;
66886;SDS011;67239;51.680;5.976;2024-02-21T14:55:37;10.30;;;3.97;;
66886;SDS011;67239;51.680;5.976;2024-02-21T15:00:39;29.17;;;11.32;;
66886;SDS011;67239;51.680;5.976;2024-02-21T15:03:06;21.05;;;10.57;;
66886;SDS011;67239;51.680;5.976;2024-02-21T15:05:33;26.55;;;11.60;;
66886;SDS011;67239;51.680;5.976;2024-02-21T15:08:01;14.80;;;6.05;;
66886;SDS011;67239;51.680;5.976;2024-02-21T15:10:48;20.83;;;7.60;;
66886;SDS011;67239;51.680;5.976;2024-02-21T15:13:17;27.35;;;7.47;;
66886;SDS011;67239;51.680;5.976;2024-02-21T15:15:44;23.92;;;15.02;;
66886;SDS011;67239;51.680;5.976;2024-02-21T15:18:14;57.85;;;31.05;;